Wetterdaten: Mittwoch, 05.08.2015
Datum Zeit Auen-Temp. Temp gefhlt Luftfeuchte Luftdruck Regen Wind Richtung Richtung Taupunkt Windben
05.08.2015 00:00 17,1 C 17,0 C 83 % 1015,1 hPa 0,0 mm 0,0 km/h (0 Bft) SO 135 14,2 C 0,0 km/h (0 Bft)
05.08.2015 00:05 17,1 C 17,0 C 83 % 1015,1 hPa 0,0 mm 0,0 km/h (0 Bft) NO 45 14,2 C 0,0 km/h (0 Bft)
05.08.2015 00:10 17,1 C 17,0 C 83 % 1015,0 hPa 0,0 mm 0,0 km/h (0 Bft) W 270 14,2 C 0,0 km/h (0 Bft)
05.08.2015 00:15 17,1 C 17,0 C 83 % 1015,0 hPa 0,0 mm 0,5 km/h (0 Bft) S-SW 202 14,2 C 3,4 km/h (1 Bft)
05.08.2015 00:20 17,1 C 17,0 C 83 % 1015,0 hPa 0,0 mm 1,8 km/h (1 Bft) S 180 14,2 C 7,5 km/h (2 Bft)
05.08.2015 00:25 17,1 C 17,0 C 83 % 1015,0 hPa 0,0 mm 1,6 km/h (1 Bft) O 90 14,2 C 0,0 km/h (0 Bft)
05.08.2015 00:30 17,0 C 16,9 C 83 % 1015,0 hPa 0,0 mm 0,3 km/h (0 Bft) O-NO 67 14,1 C 0,0 km/h (0 Bft)
05.08.2015 00:35 16,9 C 16,8 C 83 % 1015,0 hPa 0,0 mm 0,0 km/h (0 Bft) O-NO 67 14,0 C 0,0 km/h (0 Bft)
05.08.2015 00:40 16,7 C 16,6 C 83 % 1015,0 hPa 0,0 mm 0,0 km/h (0 Bft) O-NO 67 13,8 C 0,0 km/h (0 Bft)
05.08.2015 00:45 16,7 C 16,6 C 83 % 1015,0 hPa 0,0 mm 0,0 km/h (0 Bft) O-NO 67 13,8 C 0,0 km/h (0 Bft)
05.08.2015 00:50 16,6 C 16,5 C 83 % 1015,2 hPa 0,0 mm 0,0 km/h (0 Bft) O-NO 67 13,7 C 0,0 km/h (0 Bft)
05.08.2015 00:55 16,6 C 16,5 C 83 % 1015,2 hPa 0,0 mm 0,0 km/h (0 Bft) O-NO 67 13,7 C 0,0 km/h (0 Bft)
05.08.2015 01:00 16,6 C 16,5 C 83 % 1015,2 hPa 0,0 mm 0,0 km/h (0 Bft) O 90 13,7 C 0,0 km/h (0 Bft)
05.08.2015 01:05 16,6 C 16,5 C 83 % 1015,2 hPa 0,0 mm 0,0 km/h (0 Bft) SO 135 13,7 C 0,0 km/h (0 Bft)
05.08.2015 01:10 16,5 C 16,3 C 83 % 1015,1 hPa 0,0 mm 0,0 km/h (0 Bft) O-NO 67 13,6 C 0,0 km/h (0 Bft)
05.08.2015 01:15 16,4 C 16,2 C 83 % 1015,1 hPa 0,0 mm 0,0 km/h (0 Bft) O-SO 112 13,5 C 0,0 km/h (0 Bft)
05.08.2015 01:20 16,1 C 16,0 C 83 % 1015,1 hPa 0,0 mm 0,0 km/h (0 Bft) NW 315 13,2 C 0,0 km/h (0 Bft)
05.08.2015 01:25 16,0 C 15,9 C 83 % 1015,1 hPa 0,0 mm 0,0 km/h (0 Bft) NW 315 13,1 C 0,0 km/h (0 Bft)
05.08.2015 01:30 16,0 C 15,8 C 83 % 1015,1 hPa 0,0 mm 0,0 km/h (0 Bft) NO 45 13,1 C 0,0 km/h (0 Bft)
05.08.2015 01:35 16,1 C 15,9 C 84 % 1015,1 hPa 0,0 mm 0,0 km/h (0 Bft) O-SO 112 13,4 C 0,0 km/h (0 Bft)
05.08.2015 01:40 15,9 C 15,7 C 84 % 1015,1 hPa 0,0 mm 0,0 km/h (0 Bft) O-NO 67 13,2 C 0,0 km/h (0 Bft)
05.08.2015 01:45 15,8 C 15,6 C 84 % 1015,1 hPa 0,0 mm 0,0 km/h (0 Bft) N-NO 22 13,1 C 0,0 km/h (0 Bft)
05.08.2015 01:50 15,6 C 15,4 C 84 % 1014,9 hPa 0,0 mm 0,3 km/h (0 Bft) O-NO 67 12,9 C 0,0 km/h (0 Bft)
05.08.2015 01:55 15,5 C 15,3 C 84 % 1014,9 hPa 0,0 mm 0,3 km/h (0 Bft) O-NO 67 12,8 C 0,0 km/h (0 Bft)
05.08.2015 02:00 15,3 C 15,2 C 84 % 1014,9 hPa 0,0 mm 0,0 km/h (0 Bft) S-SO 157 12,6 C 0,0 km/h (0 Bft)
05.08.2015 02:05 15,3 C 15,1 C 85 % 1014,9 hPa 0,0 mm 0,0 km/h (0 Bft) W-NW 292 12,8 C 0,0 km/h (0 Bft)
05.08.2015 02:10 15,2 C 15,0 C 84 % 1014,9 hPa 0,0 mm 0,0 km/h (0 Bft) O-NO 67 12,5 C 0,0 km/h (0 Bft)
05.08.2015 02:15 15,2 C 15,0 C 85 % 1014,9 hPa 0,0 mm 0,0 km/h (0 Bft) O-NO 67 12,7 C 0,0 km/h (0 Bft)
05.08.2015 02:20 15,0 C 14,9 C 85 % 1014,9 hPa 0,0 mm 0,0 km/h (0 Bft) O-NO 67 12,5 C 0,0 km/h (0 Bft)
05.08.2015 02:25 15,0 C 14,8 C 85 % 1014,9 hPa 0,0 mm 0,0 km/h (0 Bft) O-NO 67 12,5 C 0,0 km/h (0 Bft)
05.08.2015 02:30 14,8 C 14,6 C 85 % 1015,1 hPa 0,0 mm 0,0 km/h (0 Bft) O-NO 67 12,3 C 0,0 km/h (0 Bft)
05.08.2015 02:35 14,9 C 14,7 C 85 % 1015,1 hPa 0,0 mm 0,0 km/h (0 Bft) N-NO 22 12,4 C 0,0 km/h (0 Bft)
05.08.2015 02:40 15,0 C 14,7 C 86 % 1015,1 hPa 0,0 mm 0,0 km/h (0 Bft) W 270 12,7 C 0,0 km/h (0 Bft)
05.08.2015 02:45 14,9 C 14,7 C 86 % 1015,1 hPa 0,0 mm 0,0 km/h (0 Bft) W 270 12,6 C 0,0 km/h (0 Bft)
05.08.2015 02:50 14,7 C 14,5 C 86 % 1014,8 hPa 0,0 mm 0,0 km/h (0 Bft) W 270 12,4 C 0,0 km/h (0 Bft)
05.08.2015 02:55 14,6 C 14,4 C 86 % 1014,8 hPa 0,0 mm 0,0 km/h (0 Bft) W-NW 292 12,3 C 0,0 km/h (0 Bft)
05.08.2015 03:00 14,5 C 14,3 C 86 % 1014,8 hPa 0,0 mm 0,0 km/h (0 Bft) NO 45 12,2 C 0,0 km/h (0 Bft)
05.08.2015 03:05 14,6 C 14,4 C 86 % 1014,8 hPa 0,0 mm 0,0 km/h (0 Bft) NO 45 12,3 C 0,0 km/h (0 Bft)
05.08.2015 03:10 14,6 C 14,4 C 86 % 1014,8 hPa 0,0 mm 0,0 km/h (0 Bft) O-NO 67 12,3 C 0,0 km/h (0 Bft)
05.08.2015 03:15 14,5 C 14,3 C 86 % 1014,8 hPa 0,0 mm 0,0 km/h (0 Bft) O-NO 67 12,2 C 0,0 km/h (0 Bft)
05.08.2015 03:20 14,3 C 14,1 C 86 % 1014,8 hPa 0,0 mm 0,0 km/h (0 Bft) O-NO 67 12,0 C 0,0 km/h (0 Bft)
05.08.2015 03:25 14,1 C 14,0 C 86 % 1014,8 hPa 0,0 mm 0,0 km/h (0 Bft) O-NO 67 11,8 C 0,0 km/h (0 Bft)
05.08.2015 03:30 14,0 C 13,8 C 86 % 1014,7 hPa 0,0 mm 0,0 km/h (0 Bft) N-NW 337 11,7 C 0,0 km/h (0 Bft)
05.08.2015 03:35 14,1 C 13,9 C 87 % 1014,7 hPa 0,0 mm 0,8 km/h (0 Bft) SO 135 12,0 C 2,6 km/h (1 Bft)
05.08.2015 03:36 14,1 C 13,9 C 87 % 1014,7 hPa 0,0 mm 0,8 km/h (0 Bft) SO 135 12,0 C 2,6 km/h (1 Bft)
05.08.2015 03:40 14,1 C 13,9 C 87 % 1014,7 hPa 0,0 mm 0,8 km/h (0 Bft) SO 135 12,0 C 2,6 km/h (1 Bft)
05.08.2015 03:45 14,3 C 14,0 C 88 % 1014,7 hPa 0,0 mm 1,6 km/h (1 Bft) SO 135 12,3 C 5,4 km/h (1 Bft)
05.08.2015 03:50 14,4 C 14,2 C 88 % 1014,8 hPa 0,0 mm 2,6 km/h (1 Bft) SO 135 12,4 C 3,1 km/h (1 Bft)
05.08.2015 03:55 14,3 C 14,1 C 88 % 1014,8 hPa 0,0 mm 2,1 km/h (1 Bft) SO 135 12,3 C 0,0 km/h (0 Bft)
05.08.2015 04:00 14,3 C 14,2 C 85 % 1014,8 hPa 0,0 mm 0,8 km/h (0 Bft) S-SO 157 11,8 C 4,1 km/h (1 Bft)
05.08.2015 04:05 14,3 C 14,1 C 88 % 1014,8 hPa 0,0 mm 1,0 km/h (0 Bft) S-SO 157 12,3 C 0,0 km/h (0 Bft)
05.08.2015 04:10 14,0 C 13,8 C 88 % 1014,5 hPa 0,0 mm 0,8 km/h (0 Bft) SO 135 12,0 C 3,6 km/h (1 Bft)
05.08.2015 04:15 13,7 C 13,6 C 88 % 1014,5 hPa 0,0 mm 0,8 km/h (0 Bft) W-SW 247 11,7 C 0,0 km/h (0 Bft)
05.08.2015 04:20 14,0 C 13,8 C 88 % 1014,5 hPa 0,0 mm 1,6 km/h (1 Bft) W 270 12,0 C 0,0 km/h (0 Bft)
05.08.2015 04:25 13,6 C 13,5 C 88 % 1014,5 hPa 0,0 mm 1,0 km/h (0 Bft) N-NW 337 11,6 C 0,0 km/h (0 Bft)
05.08.2015 04:30 13,4 C 13,3 C 88 % 1014,4 hPa 0,0 mm 0,0 km/h (0 Bft) W-SW 247 11,5 C 0,0 km/h (0 Bft)
05.08.2015 04:35 13,7 C 13,5 C 88 % 1014,4 hPa 0,0 mm 0,0 km/h (0 Bft) S-SO 157 11,7 C 0,0 km/h (0 Bft)
05.08.2015 04:40 13,8 C 13,8 C 85 % 1014,4 hPa 0,0 mm 0,8 km/h (0 Bft) S-SO 157 11,3 C 3,9 km/h (1 Bft)
05.08.2015 04:45 14,1 C 13,9 C 85 % 1014,4 hPa 0,0 mm 1,0 km/h (0 Bft) S-SO 157 11,6 C 2,8 km/h (1 Bft)
05.08.2015 04:50 13,9 C 13,7 C 89 % 1014,4 hPa 0,0 mm 0,8 km/h (0 Bft) S-SW 202 12,1 C 0,0 km/h (0 Bft)
05.08.2015 04:55 13,4 C 13,3 C 89 % 1014,4 hPa 0,0 mm 0,3 km/h (0 Bft) SO 135 11,6 C 0,0 km/h (0 Bft)
05.08.2015 05:00 13,2 C 13,1 C 88 % 1014,4 hPa 0,0 mm 0,0 km/h (0 Bft) SO 135 11,3 C 0,0 km/h (0 Bft)
05.08.2015 05:05 13,0 C 12,9 C 88 % 1014,4 hPa 0,0 mm 0,0 km/h (0 Bft) SO 135 11,1 C 0,0 km/h (0 Bft)
05.08.2015 05:10 12,9 C 12,8 C 88 % 1014,2 hPa 0,0 mm 0,0 km/h (0 Bft) S-SO 157 11,0 C 0,0 km/h (0 Bft)
05.08.2015 05:15 12,7 C 12,6 C 88 % 1014,2 hPa 0,0 mm 0,0 km/h (0 Bft) SW 225 10,8 C 0,0 km/h (0 Bft)
05.08.2015 05:20 12,8 C 12,6 C 88 % 1014,2 hPa 0,0 mm 0,0 km/h (0 Bft) S-SW 202 10,9 C 0,0 km/h (0 Bft)
05.08.2015 05:25 12,6 C 12,5 C 88 % 1014,2 hPa 0,0 mm 0,0 km/h (0 Bft) SW 225 10,7 C 0,0 km/h (0 Bft)
05.08.2015 05:30 12,5 C 12,4 C 88 % 1014,2 hPa 0,0 mm 0,0 km/h (0 Bft) SW 225 10,6 C 0,0 km/h (0 Bft)
05.08.2015 05:35 12,5 C 12,3 C 88 % 1014,2 hPa 0,0 mm 0,0 km/h (0 Bft) SW 225 10,6 C 0,0 km/h (0 Bft)
05.08.2015 05:40 12,5 C 12,3 C 88 % 1014,2 hPa 0,0 mm 0,0 km/h (0 Bft) SW 225 10,6 C 0,0 km/h (0 Bft)
05.08.2015 05:45 12,4 C 12,2 C 88 % 1014,2 hPa 0,7 mm 0,0 km/h (0 Bft) SW 225 10,5 C 0,0 km/h (0 Bft)
05.08.2015 05:50 12,2 C 12,1 C 88 % 1014,1 hPa 0,0 mm 0,0 km/h (0 Bft) SO 135 10,3 C 0,0 km/h (0 Bft)
05.08.2015 05:55 12,4 C 12,2 C 88 % 1014,1 hPa 0,0 mm 0,0 km/h (0 Bft) S-SO 157 10,5 C 0,0 km/h (0 Bft)
05.08.2015 06:00 12,2 C 12,1 C 88 % 1014,1 hPa 0,0 mm 0,0 km/h (0 Bft) SW 225 10,3 C 0,0 km/h (0 Bft)
05.08.2015 06:05 12,1 C 12,0 C 88 % 1014,1 hPa 0,0 mm 0,0 km/h (0 Bft) SW 225 10,2 C 0,0 km/h (0 Bft)
05.08.2015 06:10 12,0 C 11,9 C 88 % 1014,1 hPa 0,0 mm 0,0 km/h (0 Bft) SW 225 10,1 C 0,0 km/h (0 Bft)
05.08.2015 06:15 11,7 C 11,7 C 89 % 1014,1 hPa 0,0 mm 0,0 km/h (0 Bft) SW 225 9,9 C 0,0 km/h (0 Bft)
05.08.2015 06:20 11,8 C 11,7 C 89 % 1014,1 hPa 0,0 mm 0,0 km/h (0 Bft) SW 225 10,0 C 0,0 km/h (0 Bft)
05.08.2015 06:25 11,9 C 11,8 C 89 % 1014,1 hPa 0,0 mm 0,0 km/h (0 Bft) SW 225 10,1 C 0,0 km/h (0 Bft)
05.08.2015 06:30 11,8 C 11,9 C 89 % 1013,9 hPa 0,0 mm 0,0 km/h (0 Bft) SW 225 10,0 C 0,0 km/h (0 Bft)
05.08.2015 06:35 11,9 C 11,9 C 89 % 1013,9 hPa 0,0 mm 0,0 km/h (0 Bft) SW 225 10,1 C 0,0 km/h (0 Bft)
05.08.2015 06:40 12,2 C 12,6 C 86 % 1013,9 hPa 0,0 mm 0,0 km/h (0 Bft) SO 135 9,9 C 0,0 km/h (0 Bft)
05.08.2015 06:45 12,2 C 14,0 C 89 % 1013,9 hPa 0,0 mm 0,0 km/h (0 Bft) S-SO 157 10,4 C 0,0 km/h (0 Bft)
05.08.2015 06:50 12,3 C 15,0 C 86 % 1013,9 hPa 0,0 mm 0,0 km/h (0 Bft) S-SW 202 10,0 C 0,0 km/h (0 Bft)
05.08.2015 06:55 12,4 C 15,9 C 86 % 1013,9 hPa 0,0 mm 0,0 km/h (0 Bft) S 180 10,1 C 0,0 km/h (0 Bft)
05.08.2015 07:00 12,5 C 17,2 C 86 % 1013,9 hPa 0,0 mm 0,0 km/h (0 Bft) S 180 10,2 C 0,0 km/h (0 Bft)
05.08.2015 07:05 12,6 C 18,2 C 86 % 1013,9 hPa 0,0 mm 0,0 km/h (0 Bft) S 180 10,3 C 0,0 km/h (0 Bft)
05.08.2015 07:10 13,1 C 19,5 C 86 % 1013,9 hPa 0,0 mm 0,0 km/h (0 Bft) SO 135 10,8 C 0,0 km/h (0 Bft)
05.08.2015 07:15 13,6 C 20,4 C 86 % 1013,9 hPa 0,0 mm 0,0 km/h (0 Bft) SO 135 11,3 C 0,0 km/h (0 Bft)
05.08.2015 07:20 14,2 C 21,4 C 89 % 1013,9 hPa 0,0 mm 0,0 km/h (0 Bft) SO 135 12,4 C 0,0 km/h (0 Bft)
05.08.2015 07:25 14,5 C 21,9 C 89 % 1013,9 hPa 0,0 mm 0,0 km/h (0 Bft) SO 135 12,7 C 0,0 km/h (0 Bft)
05.08.2015 07:30 14,5 C 23,0 C 89 % 1013,6 hPa 0,0 mm 0,0 km/h (0 Bft) SW 225 12,7 C 0,0 km/h (0 Bft)
05.08.2015 07:35 14,4 C 23,3 C 89 % 1013,6 hPa 0,0 mm 0,0 km/h (0 Bft) O-NO 67 12,6 C 0,0 km/h (0 Bft)
05.08.2015 07:40 14,6 C 24,0 C 85 % 1013,6 hPa 0,0 mm 0,0 km/h (0 Bft) NO 45 12,1 C 0,0 km/h (0 Bft)
05.08.2015 07:45 15,2 C 24,5 C 85 % 1013,6 hPa 0,0 mm 0,0 km/h (0 Bft) N-NW 337 12,7 C 0,0 km/h (0 Bft)
05.08.2015 07:50 16,0 C 25,5 C 84 % 1013,4 hPa 0,0 mm 0,0 km/h (0 Bft) NO 45 13,3 C 0,0 km/h (0 Bft)
05.08.2015 07:55 16,9 C 26,1 C 83 % 1013,4 hPa 0,0 mm 0,0 km/h (0 Bft) NW 315 14,0 C 0,0 km/h (0 Bft)
05.08.2015 08:00 17,8 C 26,6 C 82 % 1013,4 hPa 0,0 mm 0,0 km/h (0 Bft) W-NW 292 14,7 C 0,0 km/h (0 Bft)
05.08.2015 08:05 18,0 C 27,0 C 85 % 1013,4 hPa 0,0 mm 0,0 km/h (0 Bft) O-NO 67 15,4 C 0,0 km/h (0 Bft)
05.08.2015 08:10 18,3 C 27,1 C 81 % 1013,8 hPa 0,0 mm 0,3 km/h (0 Bft) O-NO 67 15,0 C 4,7 km/h (1 Bft)
05.08.2015 08:15 18,7 C 26,6 C 79 % 1013,8 hPa 0,0 mm 1,3 km/h (1 Bft) N 360 15,0 C 7,8 km/h (2 Bft)
05.08.2015 08:20 18,6 C 26,0 C 79 % 1013,8 hPa 0,0 mm 1,8 km/h (1 Bft) N-NO 22 14,9 C 0,0 km/h (0 Bft)
05.08.2015 08:25 18,8 C 25,8 C 78 % 1013,8 hPa 0,0 mm 2,8 km/h (1 Bft) NO 45 14,9 C 7,0 km/h (2 Bft)
05.08.2015 08:30 18,9 C 25,7 C 77 % 1014,1 hPa 0,0 mm 3,4 km/h (1 Bft) N-NO 22 14,8 C 9,8 km/h (2 Bft)
05.08.2015 08:35 18,9 C 25,2 C 77 % 1014,1 hPa 0,0 mm 4,1 km/h (1 Bft) N-NO 22 14,8 C 0,0 km/h (0 Bft)
05.08.2015 08:40 19,4 C 26,0 C 76 % 1014,1 hPa 0,0 mm 3,4 km/h (1 Bft) N-NW 337 15,1 C 3,4 km/h (1 Bft)
05.08.2015 08:45 19,6 C 26,3 C 76 % 1014,1 hPa 0,0 mm 2,6 km/h (1 Bft) O-NO 67 15,2 C 5,7 km/h (1 Bft)
05.08.2015 08:50 19,6 C 25,8 C 75 % 1014,0 hPa 0,0 mm 5,4 km/h (1 Bft) N-NO 22 15,0 C 6,7 km/h (2 Bft)
05.08.2015 08:55 20,0 C 25,9 C 75 % 1014,0 hPa 0,0 mm 6,0 km/h (2 Bft) O-NO 67 15,4 C 7,3 km/h (2 Bft)
05.08.2015 09:00 19,9 C 25,8 C 74 % 1014,0 hPa 0,0 mm 6,5 km/h (2 Bft) NO 45 15,1 C 12,7 km/h (3 Bft)
05.08.2015 09:05 19,9 C 25,9 C 74 % 1014,0 hPa 0,0 mm 6,7 km/h (2 Bft) O-NO 67 15,1 C 7,3 km/h (2 Bft)
05.08.2015 09:10 20,1 C 26,0 C 73 % 1014,1 hPa 0,0 mm 6,0 km/h (2 Bft) O-SO 112 15,1 C 15,8 km/h (3 Bft)
05.08.2015 09:15 20,1 C 25,9 C 72 % 1014,1 hPa 0,0 mm 6,2 km/h (2 Bft) O-NO 67 14,9 C 5,2 km/h (1 Bft)
05.08.2015 09:20 20,2 C 25,6 C 72 % 1014,1 hPa 0,0 mm 7,8 km/h (2 Bft) O-SO 112 15,0 C 16,6 km/h (3 Bft)
05.08.2015 09:25 20,4 C 25,8 C 71 % 1014,1 hPa 0,0 mm 7,8 km/h (2 Bft) NO 45 15,0 C 16,8 km/h (3 Bft)
05.08.2015 09:30 20,3 C 25,8 C 71 % 1014,3 hPa 0,0 mm 7,0 km/h (2 Bft) NO 45 14,9 C 9,6 km/h (2 Bft)
05.08.2015 09:35 20,3 C 25,7 C 71 % 1014,3 hPa 0,0 mm 7,5 km/h (2 Bft) O-NO 67 14,9 C 10,9 km/h (2 Bft)
05.08.2015 09:37 20,3 C 25,6 C 71 % 1014,3 hPa 0,0 mm 8,0 km/h (2 Bft) O 90 14,9 C 12,7 km/h (3 Bft)
05.08.2015 09:40 20,3 C 25,6 C 71 % 1014,3 hPa 0,0 mm 8,0 km/h (2 Bft) O 90 14,9 C 12,7 km/h (3 Bft)
05.08.2015 09:45 20,5 C 25,7 C 71 % 1014,3 hPa 0,0 mm 7,3 km/h (2 Bft) SO 135 15,1 C 7,0 km/h (2 Bft)
05.08.2015 09:50 20,6 C 25,7 C 70 % 1014,3 hPa 0,0 mm 8,3 km/h (2 Bft) O-SO 112 14,9 C 12,2 km/h (2 Bft)
05.08.2015 09:55 20,6 C 25,6 C 70 % 1014,3 hPa 0,0 mm 8,8 km/h (2 Bft) NO 45 14,9 C 12,9 km/h (3 Bft)
05.08.2015 10:00 20,8 C 25,7 C 70 % 1014,3 hPa 0,0 mm 8,5 km/h (2 Bft) N-NO 22 15,1 C 11,1 km/h (2 Bft)
05.08.2015 10:05 20,9 C 26,0 C 69 % 1014,3 hPa 0,0 mm 8,0 km/h (2 Bft) O-SO 112 15,0 C 13,5 km/h (3 Bft)
05.08.2015 10:10 20,9 C 26,1 C 70 % 1014,6 hPa 0,0 mm 7,5 km/h (2 Bft) SO 135 15,2 C 19,9 km/h (4 Bft)
05.08.2015 10:15 20,8 C 25,9 C 69 % 1014,6 hPa 0,0 mm 8,8 km/h (2 Bft) N-NO 22 14,9 C 8,8 km/h (2 Bft)
05.08.2015 10:20 21,2 C 26,2 C 69 % 1014,6 hPa 0,0 mm 8,3 km/h (2 Bft) NO 45 15,3 C 16,3 km/h (3 Bft)
05.08.2015 10:25 21,3 C 26,3 C 68 % 1014,6 hPa 0,0 mm 7,5 km/h (2 Bft) NO 45 15,1 C 12,2 km/h (2 Bft)
05.08.2015 10:30 21,3 C 26,6 C 68 % 1014,8 hPa 0,0 mm 7,8 km/h (2 Bft) O-NO 67 15,1 C 8,5 km/h (2 Bft)
05.08.2015 10:35 21,5 C 26,5 C 69 % 1014,8 hPa 0,0 mm 7,0 km/h (2 Bft) N-NW 337 15,6 C 9,1 km/h (2 Bft)
05.08.2015 10:40 21,8 C 27,2 C 69 % 1014,8 hPa 0,0 mm 6,5 km/h (2 Bft) O-NO 67 15,9 C 6,5 km/h (2 Bft)
05.08.2015 10:45 22,0 C 27,5 C 68 % 1014,8 hPa 0,0 mm 5,4 km/h (1 Bft) O-NO 67 15,8 C 10,4 km/h (2 Bft)
05.08.2015 10:50 21,9 C 27,2 C 68 % 1014,8 hPa 0,0 mm 6,7 km/h (2 Bft) N-NW 337 15,7 C 9,8 km/h (2 Bft)
05.08.2015 10:55 22,1 C 26,9 C 68 % 1014,8 hPa 0,0 mm 9,1 km/h (2 Bft) N-NO 22 15,9 C 14,8 km/h (3 Bft)
05.08.2015 11:00 21,8 C 26,6 C 68 % 1014,8 hPa 0,0 mm 9,1 km/h (2 Bft) N-NW 337 15,6 C 8,0 km/h (2 Bft)
05.08.2015 11:05 21,9 C 26,7 C 68 % 1014,8 hPa 0,0 mm 8,8 km/h (2 Bft) N-NO 22 15,7 C 7,8 km/h (2 Bft)
05.08.2015 11:10 22,1 C 27,5 C 68 % 1015,1 hPa 0,0 mm 6,7 km/h (2 Bft) NO 45 15,9 C 16,1 km/h (3 Bft)
05.08.2015 11:15 22,5 C 27,4 C 67 % 1015,1 hPa 0,0 mm 7,5 km/h (2 Bft) NO 45 16,1 C 17,3 km/h (3 Bft)
05.08.2015 11:20 22,5 C 27,1 C 67 % 1015,1 hPa 0,0 mm 8,5 km/h (2 Bft) O-NO 67 16,1 C 10,4 km/h (2 Bft)
05.08.2015 11:25 22,5 C 27,3 C 66 % 1015,1 hPa 0,0 mm 8,3 km/h (2 Bft) NO 45 15,8 C 10,4 km/h (2 Bft)
05.08.2015 11:30 22,6 C 27,5 C 67 % 1015,0 hPa 0,0 mm 7,5 km/h (2 Bft) N 360 16,2 C 12,4 km/h (3 Bft)
05.08.2015 11:35 23,0 C 27,5 C 65 % 1015,0 hPa 0,0 mm 7,8 km/h (2 Bft) N-NO 22 16,1 C 14,0 km/h (3 Bft)
05.08.2015 11:40 23,3 C 27,8 C 65 % 1015,0 hPa 0,0 mm 7,0 km/h (2 Bft) N-NW 337 16,3 C 0,0 km/h (0 Bft)
05.08.2015 11:45 23,4 C 28,1 C 64 % 1015,0 hPa 0,0 mm 6,7 km/h (2 Bft) NO 45 16,2 C 10,9 km/h (2 Bft)
05.08.2015 11:50 23,5 C 28,3 C 64 % 1014,9 hPa 0,0 mm 6,0 km/h (2 Bft) N-NO 22 16,3 C 7,3 km/h (2 Bft)
05.08.2015 11:55 23,5 C 28,3 C 64 % 1014,9 hPa 0,0 mm 7,0 km/h (2 Bft) N-NO 22 16,3 C 9,8 km/h (2 Bft)
05.08.2015 12:00 23,8 C 28,6 C 64 % 1014,9 hPa 0,0 mm 6,7 km/h (2 Bft) N-NO 22 16,6 C 7,0 km/h (2 Bft)
05.08.2015 12:05 23,5 C 28,3 C 63 % 1014,9 hPa 0,0 mm 7,0 km/h (2 Bft) N-NW 337 16,0 C 6,2 km/h (2 Bft)
05.08.2015 12:10 23,6 C 28,8 C 63 % 1015,1 hPa 0,0 mm 6,5 km/h (2 Bft) O-NO 67 16,1 C 8,3 km/h (2 Bft)
05.08.2015 12:15 23,9 C 28,7 C 63 % 1015,1 hPa 0,0 mm 6,5 km/h (2 Bft) N-NW 337 16,4 C 7,8 km/h (2 Bft)
05.08.2015 12:20 24,1 C 28,6 C 62 % 1015,1 hPa 0,0 mm 9,1 km/h (2 Bft) N-NO 22 16,4 C 20,7 km/h (4 Bft)
05.08.2015 12:25 24,1 C 28,2 C 61 % 1015,1 hPa 0,0 mm 10,1 km/h (2 Bft) O-NO 67 16,1 C 6,2 km/h (2 Bft)
05.08.2015 12:30 24,1 C 28,1 C 61 % 1014,9 hPa 0,0 mm 10,4 km/h (2 Bft) SW 225 16,1 C 8,5 km/h (2 Bft)
05.08.2015 12:35 24,2 C 28,2 C 61 % 1014,9 hPa 0,0 mm 8,8 km/h (2 Bft) N 360 16,2 C 12,4 km/h (3 Bft)
05.08.2015 12:40 24,5 C 28,6 C 61 % 1014,9 hPa 0,0 mm 8,5 km/h (2 Bft) N-NW 337 16,5 C 12,9 km/h (3 Bft)
05.08.2015 12:45 24,7 C 28,7 C 61 % 1014,9 hPa 0,0 mm 8,0 km/h (2 Bft) NO 45 16,7 C 3,9 km/h (1 Bft)
05.08.2015 12:50 24,9 C 28,8 C 59 % 1014,7 hPa 0,0 mm 9,3 km/h (2 Bft) NO 45 16,3 C 22,0 km/h (4 Bft)
05.08.2015 12:55 24,8 C 28,8 C 59 % 1014,7 hPa 0,0 mm 9,3 km/h (2 Bft) N-NW 337 16,2 C 14,5 km/h (3 Bft)
05.08.2015 13:00 24,9 C 28,9 C 59 % 1014,7 hPa 0,0 mm 8,8 km/h (2 Bft) N-NW 337 16,3 C 11,1 km/h (2 Bft)
05.08.2015 13:05 25,1 C 29,2 C 59 % 1014,7 hPa 0,0 mm 8,3 km/h (2 Bft) NW 315 16,5 C 8,5 km/h (2 Bft)
05.08.2015 13:10 25,3 C 29,4 C 59 % 1014,7 hPa 0,0 mm 7,8 km/h (2 Bft) W-NW 292 16,7 C 15,5 km/h (3 Bft)
05.08.2015 13:15 25,2 C 29,0 C 58 % 1014,7 hPa 0,0 mm 9,1 km/h (2 Bft) S-SW 202 16,3 C 12,9 km/h (3 Bft)
05.08.2015 13:20 25,3 C 28,6 C 58 % 1014,7 hPa 0,0 mm 7,8 km/h (2 Bft) SO 135 16,4 C 9,6 km/h (2 Bft)
05.08.2015 13:25 25,2 C 28,1 C 58 % 1014,7 hPa 0,0 mm 7,3 km/h (2 Bft) N-NO 22 16,3 C 12,7 km/h (3 Bft)
05.08.2015 13:30 25,3 C 27,2 C 58 % 1014,3 hPa 0,0 mm 8,8 km/h (2 Bft) N-NW 337 16,4 C 8,3 km/h (2 Bft)
05.08.2015 13:35 25,6 C 27,3 C 58 % 1014,3 hPa 0,0 mm 9,3 km/h (2 Bft) N-NO 22 16,7 C 3,9 km/h (1 Bft)
05.08.2015 13:40 26,0 C 27,9 C 56 % 1014,3 hPa 0,0 mm 7,3 km/h (2 Bft) O-NO 67 16,5 C 22,5 km/h (4 Bft)
05.08.2015 13:45 25,8 C 28,3 C 57 % 1014,3 hPa 0,0 mm 6,7 km/h (2 Bft) O-NO 67 16,6 C 5,7 km/h (1 Bft)
05.08.2015 13:50 25,8 C 28,9 C 58 % 1014,3 hPa 0,0 mm 10,1 km/h (2 Bft) O-NO 67 16,9 C 16,6 km/h (3 Bft)
05.08.2015 13:55 26,1 C 29,3 C 56 % 1014,3 hPa 0,0 mm 9,1 km/h (2 Bft) NO 45 16,6 C 11,7 km/h (2 Bft)
05.08.2015 14:00 26,1 C 29,7 C 56 % 1014,3 hPa 0,0 mm 7,8 km/h (2 Bft) O-NO 67 16,6 C 0,0 km/h (0 Bft)
05.08.2015 14:05 26,6 C 30,5 C 56 % 1014,3 hPa 0,0 mm 7,0 km/h (2 Bft) N-NO 22 17,1 C 7,5 km/h (2 Bft)
05.08.2015 14:10 26,7 C 30,7 C 56 % 1013,9 hPa 0,0 mm 6,2 km/h (2 Bft) O-NO 67 17,2 C 8,0 km/h (2 Bft)
05.08.2015 14:15 26,7 C 30,8 C 56 % 1013,9 hPa 0,0 mm 7,5 km/h (2 Bft) NO 45 17,2 C 13,2 km/h (3 Bft)
05.08.2015 14:20 26,6 C 30,5 C 55 % 1013,9 hPa 0,0 mm 9,1 km/h (2 Bft) O-NO 67 16,8 C 12,2 km/h (2 Bft)
05.08.2015 14:25 26,6 C 30,5 C 55 % 1013,9 hPa 0,0 mm 8,5 km/h (2 Bft) N-NW 337 16,8 C 14,2 km/h (3 Bft)
05.08.2015 14:30 26,7 C 30,5 C 55 % 1013,6 hPa 0,0 mm 9,1 km/h (2 Bft) N-NO 22 16,9 C 3,9 km/h (1 Bft)
05.08.2015 14:35 27,1 C 31,0 C 55 % 1013,6 hPa 0,0 mm 7,8 km/h (2 Bft) NO 45 17,3 C 3,1 km/h (1 Bft)
05.08.2015 14:40 27,1 C 31,2 C 53 % 1013,6 hPa 0,0 mm 6,7 km/h (2 Bft) N-NO 22 16,7 C 16,6 km/h (3 Bft)
05.08.2015 14:45 27,0 C 30,8 C 53 % 1013,6 hPa 0,0 mm 8,8 km/h (2 Bft) NO 45 16,6 C 12,4 km/h (3 Bft)
05.08.2015 14:50 27,0 C 30,7 C 53 % 1013,3 hPa 0,0 mm 9,6 km/h (2 Bft) O-NO 67 16,6 C 5,4 km/h (1 Bft)
05.08.2015 14:55 26,9 C 30,8 C 52 % 1013,3 hPa 0,0 mm 9,6 km/h (2 Bft) O-NO 67 16,2 C 15,0 km/h (3 Bft)
05.08.2015 15:00 26,9 C 31,2 C 54 % 1013,3 hPa 0,0 mm 7,8 km/h (2 Bft) N-NO 22 16,8 C 5,7 km/h (1 Bft)
05.08.2015 15:05 27,2 C 31,1 C 53 % 1013,3 hPa 0,0 mm 8,0 km/h (2 Bft) S 180 16,8 C 9,3 km/h (2 Bft)
05.08.2015 15:10 27,2 C 31,2 C 53 % 1012,9 hPa 0,0 mm 7,8 km/h (2 Bft) NW 315 16,8 C 9,3 km/h (2 Bft)
05.08.2015 15:15 27,3 C 31,3 C 52 % 1012,9 hPa 0,0 mm 8,0 km/h (2 Bft) NO 45 16,6 C 14,8 km/h (3 Bft)
05.08.2015 15:20 27,3 C 31,4 C 52 % 1012,9 hPa 0,0 mm 8,5 km/h (2 Bft) O-SO 112 16,6 C 8,0 km/h (2 Bft)
05.08.2015 15:25 27,3 C 31,4 C 52 % 1012,9 hPa 0,0 mm 7,5 km/h (2 Bft) O-NO 67 16,6 C 0,0 km/h (0 Bft)
05.08.2015 15:30 27,6 C 31,8 C 52 % 1012,9 hPa 0,0 mm 7,0 km/h (2 Bft) O-NO 67 16,8 C 11,7 km/h (2 Bft)
05.08.2015 15:35 27,7 C 31,8 C 52 % 1012,9 hPa 0,0 mm 6,2 km/h (2 Bft) NO 45 16,9 C 10,4 km/h (2 Bft)
05.08.2015 15:38 27,7 C 31,8 C 51 % 1012,9 hPa 0,0 mm 8,0 km/h (2 Bft) O-NO 67 16,6 C 3,9 km/h (1 Bft)
05.08.2015 15:40 27,7 C 31,8 C 51 % 1012,9 hPa 0,0 mm 8,0 km/h (2 Bft) O-NO 67 16,6 C 3,9 km/h (1 Bft)
05.08.2015 15:45 27,8 C 32,0 C 51 % 1012,9 hPa 0,0 mm 7,5 km/h (2 Bft) O-NO 67 16,7 C 7,0 km/h (2 Bft)
05.08.2015 15:50 27,9 C 32,5 C 50 % 1012,6 hPa 0,0 mm 4,9 km/h (1 Bft) W-NW 292 16,5 C 4,4 km/h (1 Bft)
05.08.2015 15:55 28,0 C 32,9 C 50 % 1012,6 hPa 0,0 mm 4,4 km/h (1 Bft) NO 45 16,6 C 3,6 km/h (1 Bft)
05.08.2015 16:00 28,1 C 33,1 C 50 % 1012,6 hPa 0,0 mm 5,7 km/h (1 Bft) N-NO 22 16,7 C 7,8 km/h (2 Bft)
05.08.2015 16:05 27,9 C 33,0 C 50 % 1012,6 hPa 0,0 mm 5,2 km/h (1 Bft) SO 135 16,5 C 8,0 km/h (2 Bft)
05.08.2015 16:10 27,9 C 33,0 C 50 % 1012,7 hPa 0,0 mm 4,4 km/h (1 Bft) W 270 16,5 C 4,4 km/h (1 Bft)
05.08.2015 16:15 27,7 C 33,1 C 50 % 1012,7 hPa 0,0 mm 4,1 km/h (1 Bft) O-NO 67 16,3 C 8,3 km/h (2 Bft)
05.08.2015 16:20 27,4 C 32,8 C 50 % 1012,7 hPa 0,0 mm 6,0 km/h (2 Bft) O-NO 67 16,0 C 5,2 km/h (1 Bft)
05.08.2015 16:25 27,3 C 33,1 C 50 % 1012,7 hPa 0,0 mm 6,2 km/h (2 Bft) N-NO 22 15,9 C 10,1 km/h (2 Bft)
05.08.2015 16:30 27,3 C 33,2 C 51 % 1012,3 hPa 0,0 mm 5,7 km/h (1 Bft) NO 45 16,3 C 7,3 km/h (2 Bft)
05.08.2015 16:35 27,2 C 32,9 C 50 % 1012,3 hPa 0,0 mm 7,5 km/h (2 Bft) O-NO 67 15,9 C 8,5 km/h (2 Bft)
05.08.2015 16:40 27,2 C 32,6 C 50 % 1012,3 hPa 0,0 mm 7,5 km/h (2 Bft) N-NO 22 15,9 C 16,3 km/h (3 Bft)
05.08.2015 16:45 27,1 C 32,5 C 50 % 1012,3 hPa 0,0 mm 6,2 km/h (2 Bft) NW 315 15,8 C 0,0 km/h (0 Bft)
05.08.2015 16:50 27,0 C 33,2 C 51 % 1012,1 hPa 0,0 mm 5,2 km/h (1 Bft) NO 45 16,0 C 12,7 km/h (3 Bft)
05.08.2015 16:55 26,9 C 31,9 C 50 % 1012,1 hPa 0,0 mm 6,2 km/h (2 Bft) N-NO 22 15,6 C 11,7 km/h (2 Bft)
05.08.2015 17:00 27,0 C 29,9 C 50 % 1012,1 hPa 0,0 mm 8,0 km/h (2 Bft) W-NW 292 15,7 C 12,4 km/h (3 Bft)
05.08.2015 17:05 27,0 C 29,1 C 50 % 1012,1 hPa 0,0 mm 7,3 km/h (2 Bft) O-NO 67 15,7 C 17,1 km/h (3 Bft)
05.08.2015 17:10 26,9 C 28,4 C 50 % 1012,1 hPa 0,0 mm 8,3 km/h (2 Bft) N-NO 22 15,6 C 11,7 km/h (2 Bft)
05.08.2015 17:15 26,8 C 28,0 C 50 % 1012,1 hPa 0,0 mm 9,1 km/h (2 Bft) N 360 15,5 C 10,6 km/h (2 Bft)
05.08.2015 17:20 26,8 C 27,7 C 50 % 1012,1 hPa 0,0 mm 9,6 km/h (2 Bft) O-NO 67 15,5 C 10,6 km/h (2 Bft)
05.08.2015 17:25 26,8 C 27,6 C 50 % 1012,1 hPa 0,0 mm 8,0 km/h (2 Bft) N-NW 337 15,5 C 12,9 km/h (3 Bft)
05.08.2015 17:30 26,7 C 27,6 C 50 % 1012,1 hPa 0,0 mm 8,5 km/h (2 Bft) NO 45 15,4 C 8,0 km/h (2 Bft)
05.08.2015 17:35 26,8 C 27,6 C 49 % 1012,1 hPa 0,0 mm 8,5 km/h (2 Bft) NO 45 15,2 C 13,5 km/h (3 Bft)
05.08.2015 17:40 26,8 C 27,6 C 50 % 1012,1 hPa 0,0 mm 6,7 km/h (2 Bft) N 360 15,5 C 11,4 km/h (2 Bft)
05.08.2015 17:45 26,7 C 27,6 C 49 % 1012,1 hPa 0,0 mm 7,0 km/h (2 Bft) NO 45 15,1 C 5,7 km/h (1 Bft)
05.08.2015 17:50 26,7 C 27,6 C 50 % 1011,9 hPa 0,0 mm 8,3 km/h (2 Bft) NO 45 15,4 C 6,0 km/h (2 Bft)
05.08.2015 17:55 26,7 C 27,5 C 49 % 1011,9 hPa 0,0 mm 7,0 km/h (2 Bft) N-NW 337 15,1 C 4,4 km/h (1 Bft)
05.08.2015 18:00 26,7 C 27,5 C 50 % 1011,9 hPa 0,0 mm 5,7 km/h (1 Bft) NO 45 15,4 C 6,0 km/h (2 Bft)
05.08.2015 18:05 26,6 C 27,6 C 50 % 1011,9 hPa 0,0 mm 5,7 km/h (1 Bft) NO 45 15,3 C 6,7 km/h (2 Bft)
05.08.2015 18:10 26,4 C 27,4 C 50 % 1011,9 hPa 0,0 mm 2,8 km/h (1 Bft) O-NO 67 15,1 C 5,7 km/h (1 Bft)
05.08.2015 18:15 26,4 C 27,5 C 50 % 1011,9 hPa 0,0 mm 2,3 km/h (1 Bft) O-NO 67 15,1 C 0,0 km/h (0 Bft)
05.08.2015 18:20 26,3 C 27,4 C 50 % 1011,9 hPa 0,0 mm 1,6 km/h (1 Bft) NO 45 15,0 C 12,4 km/h (3 Bft)
05.08.2015 18:25 26,6 C 27,4 C 50 % 1011,9 hPa 0,0 mm 3,1 km/h (1 Bft) NO 45 15,3 C 5,4 km/h (1 Bft)
05.08.2015 18:30 26,4 C 27,4 C 50 % 1011,8 hPa 0,0 mm 4,9 km/h (1 Bft) N-NO 22 15,1 C 6,2 km/h (2 Bft)
05.08.2015 18:35 26,5 C 27,4 C 50 % 1011,8 hPa 0,0 mm 4,7 km/h (1 Bft) NO 45 15,2 C 13,2 km/h (3 Bft)
05.08.2015 18:40 26,4 C 27,3 C 50 % 1011,8 hPa 0,0 mm 6,2 km/h (2 Bft) O-SO 112 15,1 C 7,5 km/h (2 Bft)
05.08.2015 18:45 26,2 C 27,3 C 50 % 1011,8 hPa 0,0 mm 5,4 km/h (1 Bft) S 180 14,9 C 3,6 km/h (1 Bft)
05.08.2015 18:50 26,2 C 27,0 C 50 % 1011,8 hPa 0,0 mm 3,6 km/h (1 Bft) N 360 14,9 C 3,4 km/h (1 Bft)
05.08.2015 18:55 26,2 C 27,0 C 50 % 1011,8 hPa 0,0 mm 4,1 km/h (1 Bft) N-NO 22 14,9 C 12,4 km/h (3 Bft)
05.08.2015 19:00 26,3 C 27,0 C 50 % 1011,8 hPa 0,0 mm 4,9 km/h (1 Bft) NO 45 15,0 C 8,8 km/h (2 Bft)
05.08.2015 19:05 26,1 C 27,0 C 50 % 1011,8 hPa 0,0 mm 4,4 km/h (1 Bft) O-NO 67 14,8 C 0,0 km/h (0 Bft)
05.08.2015 19:10 26,1 C 27,3 C 50 % 1011,9 hPa 0,0 mm 2,3 km/h (1 Bft) O-NO 67 14,8 C 2,8 km/h (1 Bft)
05.08.2015 19:15 25,9 C 28,2 C 50 % 1011,9 hPa 0,0 mm 1,8 km/h (1 Bft) O-NO 67 14,7 C 7,5 km/h (2 Bft)
05.08.2015 19:20 25,7 C 28,8 C 52 % 1011,9 hPa 0,0 mm 2,3 km/h (1 Bft) O-NO 67 15,1 C 7,8 km/h (2 Bft)
05.08.2015 19:25 25,7 C 29,2 C 51 % 1011,9 hPa 0,0 mm 2,1 km/h (1 Bft) SO 135 14,8 C 0,0 km/h (0 Bft)
05.08.2015 19:30 25,6 C 30,1 C 51 % 1011,9 hPa 0,0 mm 1,0 km/h (0 Bft) SO 135 14,7 C 0,0 km/h (0 Bft)
05.08.2015 19:35 25,3 C 30,5 C 54 % 1011,9 hPa 0,0 mm 0,0 km/h (0 Bft) O-NO 67 15,3 C 2,8 km/h (1 Bft)
05.08.2015 19:40 25,2 C 30,6 C 55 % 1011,9 hPa 0,0 mm 0,0 km/h (0 Bft) O-NO 67 15,5 C 0,0 km/h (0 Bft)
05.08.2015 19:45 25,0 C 30,7 C 55 % 1011,9 hPa 0,0 mm 0,3 km/h (0 Bft) S-SO 157 15,3 C 0,0 km/h (0 Bft)
05.08.2015 19:50 25,0 C 30,6 C 55 % 1011,8 hPa 0,0 mm 0,0 km/h (0 Bft) O-NO 67 15,3 C 0,0 km/h (0 Bft)
05.08.2015 19:55 24,8 C 30,3 C 55 % 1011,8 hPa 0,0 mm 0,0 km/h (0 Bft) SO 135 15,1 C 0,0 km/h (0 Bft)
05.08.2015 20:00 24,6 C 29,8 C 56 % 1011,8 hPa 0,0 mm 0,0 km/h (0 Bft) O-SO 112 15,2 C 0,0 km/h (0 Bft)
05.08.2015 20:05 24,5 C 29,6 C 56 % 1011,8 hPa 0,0 mm 0,0 km/h (0 Bft) O-SO 112 15,1 C 0,0 km/h (0 Bft)
05.08.2015 20:10 24,5 C 29,1 C 56 % 1011,8 hPa 0,0 mm 0,0 km/h (0 Bft) SO 135 15,1 C 0,0 km/h (0 Bft)
05.08.2015 20:15 24,1 C 28,6 C 58 % 1011,8 hPa 0,0 mm 0,3 km/h (0 Bft) O-SO 112 15,3 C 0,0 km/h (0 Bft)
05.08.2015 20:20 23,9 C 28,0 C 58 % 1011,8 hPa 0,0 mm 0,3 km/h (0 Bft) O-SO 112 15,1 C 0,0 km/h (0 Bft)
05.08.2015 20:25 23,8 C 27,5 C 59 % 1011,8 hPa 0,0 mm 0,0 km/h (0 Bft) SO 135 15,3 C 2,6 km/h (1 Bft)
05.08.2015 20:30 23,6 C 26,7 C 59 % 1012,0 hPa 0,0 mm 0,5 km/h (0 Bft) S 180 15,1 C 0,0 km/h (0 Bft)
05.08.2015 20:35 23,2 C 25,9 C 59 % 1012,0 hPa 0,0 mm 0,8 km/h (0 Bft) O-SO 112 14,7 C 2,6 km/h (1 Bft)
05.08.2015 20:40 22,9 C 24,9 C 61 % 1012,0 hPa 0,0 mm 0,3 km/h (0 Bft) SO 135 15,0 C 0,0 km/h (0 Bft)
05.08.2015 20:45 22,7 C 24,2 C 62 % 1012,0 hPa 0,0 mm 0,3 km/h (0 Bft) S-SO 157 15,0 C 0,0 km/h (0 Bft)
05.08.2015 20:50 22,7 C 23,4 C 62 % 1012,1 hPa 0,0 mm 0,5 km/h (0 Bft) SO 135 15,0 C 0,0 km/h (0 Bft)
05.08.2015 20:55 21,9 C 22,9 C 63 % 1012,1 hPa 0,0 mm 0,3 km/h (0 Bft) O-SO 112 14,5 C 0,0 km/h (0 Bft)
05.08.2015 21:00 21,5 C 22,3 C 65 % 1012,1 hPa 0,0 mm 0,0 km/h (0 Bft) SO 135 14,6 C 3,4 km/h (1 Bft)
05.08.2015 21:05 21,4 C 22,1 C 65 % 1012,1 hPa 0,0 mm 0,0 km/h (0 Bft) O-NO 67 14,5 C 0,0 km/h (0 Bft)
05.08.2015 21:10 20,9 C 21,3 C 65 % 1012,2 hPa 0,0 mm 0,0 km/h (0 Bft) S-SO 157 14,1 C 0,0 km/h (0 Bft)
05.08.2015 21:15 21,0 C 21,1 C 67 % 1012,2 hPa 0,0 mm 0,0 km/h (0 Bft) O-SO 112 14,6 C 0,0 km/h (0 Bft)
05.08.2015 21:20 20,5 C 20,6 C 67 % 1012,2 hPa 0,0 mm 0,0 km/h (0 Bft) N-NO 22 14,2 C 0,0 km/h (0 Bft)
05.08.2015 21:25 20,2 C 20,2 C 67 % 1012,2 hPa 0,0 mm 0,0 km/h (0 Bft) N-NO 22 13,9 C 0,0 km/h (0 Bft)
05.08.2015 21:30 19,9 C 19,8 C 68 % 1012,5 hPa 0,0 mm 0,0 km/h (0 Bft) N-NO 22 13,8 C 0,0 km/h (0 Bft)
05.08.2015 21:35 19,6 C 19,5 C 68 % 1012,5 hPa 0,0 mm 0,0 km/h (0 Bft) S 180 13,5 C 0,0 km/h (0 Bft)
05.08.2015 21:39 19,6 C 19,4 C 69 % 1012,5 hPa 0,0 mm 0,0 km/h (0 Bft) O-SO 112 13,8 C 0,0 km/h (0 Bft)
05.08.2015 21:40 19,6 C 19,4 C 69 % 1012,5 hPa 0,0 mm 0,0 km/h (0 Bft) O-SO 112 13,8 C 0,0 km/h (0 Bft)
05.08.2015 21:45 19,4 C 19,2 C 69 % 1012,5 hPa 0,0 mm 0,0 km/h (0 Bft) SO 135 13,6 C 0,0 km/h (0 Bft)
05.08.2015 21:50 19,4 C 19,2 C 70 % 1012,4 hPa 0,0 mm 0,0 km/h (0 Bft) O-NO 67 13,8 C 0,0 km/h (0 Bft)
05.08.2015 21:55 19,0 C 18,9 C 70 % 1012,4 hPa 0,0 mm 0,0 km/h (0 Bft) O-NO 67 13,4 C 0,0 km/h (0 Bft)
05.08.2015 22:00 18,8 C 18,7 C 71 % 1012,4 hPa 0,0 mm 0,0 km/h (0 Bft) O-NO 67 13,4 C 0,0 km/h (0 Bft)
05.08.2015 22:05 18,6 C 18,5 C 71 % 1012,4 hPa 0,0 mm 0,0 km/h (0 Bft) O-NO 67 13,2 C 0,0 km/h (0 Bft)
05.08.2015 22:10 18,5 C 18,3 C 72 % 1012,7 hPa 0,0 mm 0,0 km/h (0 Bft) O-NO 67 13,4 C 0,0 km/h (0 Bft)
05.08.2015 22:15 18,4 C 18,2 C 73 % 1012,7 hPa 0,0 mm 0,0 km/h (0 Bft) SO 135 13,5 C 0,0 km/h (0 Bft)
05.08.2015 22:20 18,4 C 18,2 C 74 % 1012,7 hPa 0,0 mm 0,0 km/h (0 Bft) S-SO 157 13,7 C 0,0 km/h (0 Bft)
05.08.2015 22:25 18,7 C 18,6 C 75 % 1012,7 hPa 0,0 mm 0,0 km/h (0 Bft) S 180 14,2 C 2,8 km/h (1 Bft)
05.08.2015 22:30 18,7 C 18,9 C 76 % 1012,8 hPa 0,0 mm 0,8 km/h (0 Bft) S-SO 157 14,4 C 2,8 km/h (1 Bft)
05.08.2015 22:35 18,8 C 19,1 C 76 % 1012,8 hPa 0,0 mm 0,8 km/h (0 Bft) S 180 14,5 C 2,8 km/h (1 Bft)
05.08.2015 22:40 18,6 C 18,8 C 75 % 1012,8 hPa 0,0 mm 0,3 km/h (0 Bft) S-SO 157 14,1 C 0,0 km/h (0 Bft)
05.08.2015 22:45 18,3 C 18,5 C 75 % 1012,8 hPa 0,0 mm 0,0 km/h (0 Bft) S 180 13,8 C 0,0 km/h (0 Bft)
05.08.2015 22:50 18,0 C 18,1 C 75 % 1012,8 hPa 0,0 mm 0,0 km/h (0 Bft) S 180 13,5 C 0,0 km/h (0 Bft)
05.08.2015 22:55 18,3 C 18,2 C 76 % 1012,8 hPa 0,0 mm 0,0 km/h (0 Bft) S-SO 157 14,0 C 0,0 km/h (0 Bft)
05.08.2015 23:00 18,2 C 18,3 C 75 % 1012,8 hPa 0,0 mm 0,0 km/h (0 Bft) S-SO 157 13,7 C 0,0 km/h (0 Bft)
05.08.2015 23:05 18,2 C 18,4 C 76 % 1012,8 hPa 0,0 mm 0,0 km/h (0 Bft) SO 135 13,9 C 0,0 km/h (0 Bft)
05.08.2015 23:10 18,4 C 18,5 C 76 % 1012,8 hPa 0,0 mm 0,0 km/h (0 Bft) S 180 14,1 C 0,0 km/h (0 Bft)
05.08.2015 23:15 18,5 C 18,4 C 76 % 1012,8 hPa 0,0 mm 0,0 km/h (0 Bft) S-SW 202 14,2 C 0,0 km/h (0 Bft)
05.08.2015 23:20 18,5 C 18,4 C 76 % 1012,8 hPa 0,0 mm 0,0 km/h (0 Bft) SO 135 14,2 C 0,0 km/h (0 Bft)
05.08.2015 23:25 18,5 C 18,4 C 76 % 1012,8 hPa 0,0 mm 0,0 km/h (0 Bft) S 180 14,2 C 0,0 km/h (0 Bft)
05.08.2015 23:30 18,5 C 18,4 C 76 % 1012,8 hPa 0,0 mm 0,0 km/h (0 Bft) W 270 14,2 C 0,0 km/h (0 Bft)
05.08.2015 23:35 18,4 C 18,3 C 76 % 1012,8 hPa 0,0 mm 0,0 km/h (0 Bft) W 270 14,1 C 0,0 km/h (0 Bft)
05.08.2015 23:40 18,1 C 18,0 C 76 % 1012,8 hPa 0,0 mm 0,0 km/h (0 Bft) W 270 13,8 C 0,0 km/h (0 Bft)
05.08.2015 23:45 18,1 C 18,0 C 76 % 1012,8 hPa 0,0 mm 0,0 km/h (0 Bft) W 270 13,8 C 0,0 km/h (0 Bft)
05.08.2015 23:50 18,0 C 17,9 C 77 % 1012,8 hPa 0,0 mm 0,0 km/h (0 Bft) W 270 13,9 C 0,0 km/h (0 Bft)
05.08.2015 23:55 18,0 C 17,9 C 77 % 1012,8 hPa 0,0 mm 0,0 km/h (0 Bft) W 270 13,9 C 0,0 km/h (0 Bft)
_ Min-Zeit 06:15 06:20 17:55 20:25 - 23:55 - - 06:40 23:55
Minimum _ 11,7 C 11,7 C 49 % 1011,8 hPa - 0,0 km/h (0 Bft) - - 9,9 C 0,0 km/h (0 Bft)
_ Max-Zeit 16:00 16:50 07:35 01:05 05:45 12:30 - - 14:35 13:40
Maximum _ 28,1 C 33,2 C 89 % 1015,2 hPa 0,7 mm 10,4 km/h
SW (2 Bft)
- - 17,3 C 22,5 km/h
O-NO (4 Bft)
Durchschnitt _ 20,4 C 22,9 C 70 % 1013,7 hPa #0,7 mm 3,3 km/h (1 Bft) O-NO - 14,3 C 4,6 km/h (1 Bft)